createdAt,value
2023-04-02T00:01:19.166Z,88.62
2023-04-02T00:04:06.361Z,89.19
2023-04-02T00:06:35.972Z,89.45
2023-04-02T00:09:29.811Z,89.72
2023-04-02T00:11:59.485Z,89.22
2023-04-02T00:14:29.809Z,89.43
2023-04-02T00:16:59.858Z,89.82
2023-04-02T00:19:35.169Z,89.98
2023-04-02T00:22:06.433Z,90.17
2023-04-02T00:24:34.537Z,89.96
2023-04-02T00:27:03.818Z,90.36
2023-04-02T00:29:31.739Z,90.18
2023-04-02T00:32:00.172Z,89.87
2023-04-02T00:34:32.631Z,89.94
2023-04-02T00:37:00.675Z,90.21
2023-04-02T00:39:31.454Z,90.25
2023-04-02T00:41:59.940Z,90.36
2023-04-02T00:44:30.616Z,90.91
2023-04-02T00:46:58.662Z,90.70
2023-04-02T00:49:34.912Z,90.15
2023-04-02T00:52:05.107Z,90.25
2023-04-02T00:54:39.391Z,90.23
2023-04-02T00:57:15.481Z,90.30
2023-04-02T00:59:53.966Z,90.87
2023-04-02T01:02:26.051Z,91.44
2023-04-02T01:04:54.831Z,91.00
2023-04-02T01:07:36.052Z,91.70
2023-04-02T01:10:26.494Z,91.16
2023-04-02T01:13:04.733Z,91.04
2023-04-02T01:15:39.606Z,91.32
2023-04-02T01:18:21.406Z,91.10
2023-04-02T01:21:15.653Z,90.74
2023-04-02T01:24:01.082Z,91.45
2023-04-02T01:26:46.218Z,91.45
2023-04-02T01:29:19.082Z,91.09
2023-04-02T01:31:49.132Z,91.86
2023-04-02T01:34:19.902Z,90.73
2023-04-02T01:36:59.975Z,90.53
2023-04-02T01:39:41.491Z,90.42
2023-04-02T01:42:17.780Z,89.72
2023-04-02T01:44:49.396Z,89.71
2023-04-02T01:47:22.894Z,89.49
2023-04-02T01:49:53.369Z,89.66
2023-04-02T01:52:36.126Z,90.04
2023-04-02T01:55:04.036Z,89.38
2023-04-02T01:57:32.226Z,89.54
2023-04-02T02:00:02.617Z,88.66
2023-04-02T02:02:31.064Z,89.94
2023-04-02T02:04:58.723Z,89.68
2023-04-02T02:07:26.959Z,88.76
2023-04-02T02:09:54.528Z,89.33
2023-04-02T02:12:23.012Z,89.36
2023-04-02T02:14:51.729Z,89.75
2023-04-02T02:17:27.813Z,89.06
2023-04-02T02:19:59.503Z,89.04
2023-04-02T02:22:31.536Z,89.23
2023-04-02T02:25:00.950Z,88.38
2023-04-02T02:27:58.613Z,88.88
2023-04-02T02:30:30.406Z,88.47
2023-04-02T02:33:06.821Z,88.48
2023-04-02T02:35:40.922Z,88.19
2023-04-02T02:38:27.951Z,88.42
2023-04-02T02:41:01.381Z,88.54
2023-04-02T02:43:30.769Z,88.35
2023-04-02T02:45:58.910Z,87.87
2023-04-02T02:48:36.256Z,88.62
2023-04-02T02:51:08.303Z,88.90
2023-04-02T02:53:45.483Z,88.97
2023-04-02T02:56:13.807Z,89.15
2023-04-02T02:58:42.019Z,88.70
2023-04-02T03:01:10.155Z,89.08
2023-04-02T03:03:40.586Z,88.77
2023-04-02T03:06:11.295Z,88.64
2023-04-02T03:08:44.215Z,88.98
2023-04-02T03:11:16.890Z,87.94
2023-04-02T03:13:49.281Z,88.10
2023-04-02T03:16:21.540Z,88.03
2023-04-02T03:18:54.488Z,87.35
2023-04-02T03:21:28.135Z,88.32
2023-04-02T03:24:00.822Z,87.58
2023-04-02T03:26:35.052Z,87.77
2023-04-02T03:29:09.249Z,88.53
2023-04-02T03:31:40.085Z,88.67
2023-04-02T03:34:16.618Z,87.95
2023-04-02T03:36:52.344Z,88.46
2023-04-02T03:39:25.896Z,87.58
2023-04-02T03:41:58.893Z,87.74
2023-04-02T03:44:31.936Z,87.92
2023-04-02T03:47:06.077Z,86.75
2023-04-02T03:49:41.414Z,86.75
2023-04-02T03:52:12.484Z,86.67
2023-04-02T03:54:41.281Z,86.65
2023-04-02T03:57:30.107Z,86.73
2023-04-02T04:00:03.994Z,87.20
2023-04-02T04:02:40.998Z,87.39
2023-04-02T04:05:21.847Z,87.30
2023-04-02T04:07:53.617Z,86.84
2023-04-02T04:10:25.877Z,86.78
2023-04-02T04:12:57.452Z,86.89
2023-04-02T04:15:30.882Z,87.52
2023-04-02T04:18:02.910Z,87.34
2023-04-02T04:20:40.519Z,87.88
2023-04-02T04:23:19.442Z,88.52
2023-04-02T04:25:47.809Z,88.69
2023-04-02T04:28:23.458Z,87.69
2023-04-02T04:30:57.242Z,87.46
2023-04-02T04:33:28.120Z,85.89
2023-04-02T04:36:00.110Z,84.49
2023-04-02T04:38:32.453Z,84.30
2023-04-02T04:41:04.968Z,84.48
2023-04-02T04:43:42.883Z,84.20
2023-04-02T04:46:15.122Z,83.94
2023-04-02T04:48:50.649Z,83.37
2023-04-02T04:51:24.470Z,83.45
2023-04-02T04:53:54.616Z,82.99
2023-04-02T04:56:26.587Z,83.83
2023-04-02T04:59:05.522Z,84.10
2023-04-02T05:01:40.892Z,83.79
2023-04-02T05:04:20.156Z,84.02
2023-04-02T05:06:55.850Z,84.64
2023-04-02T05:09:35.361Z,84.99
2023-04-02T05:12:17.552Z,85.62
2023-04-02T05:14:51.550Z,86.41
2023-04-02T05:17:27.044Z,86.28
2023-04-02T05:20:00.401Z,86.66
2023-04-02T05:22:41.437Z,87.19
2023-04-02T05:25:19.219Z,87.77
2023-04-02T05:27:56.633Z,87.26
2023-04-02T05:30:50.413Z,87.74
2023-04-02T05:33:22.928Z,87.80
2023-04-02T05:35:59.969Z,88.11
2023-04-02T05:38:33.346Z,87.84
2023-04-02T05:41:04.212Z,87.21
2023-04-02T05:43:40.590Z,88.17
2023-04-02T05:46:17.541Z,87.49
2023-04-02T05:48:54.705Z,86.77
2023-04-02T05:51:28.918Z,86.86
2023-04-02T05:54:03.797Z,87.17
2023-04-02T05:56:39.185Z,86.37
2023-04-02T05:59:15.187Z,86.46
2023-04-02T06:01:46.995Z,86.25
2023-04-02T06:04:22.780Z,86.05
2023-04-02T06:06:59.045Z,85.81
2023-04-02T06:09:44.006Z,85.55
2023-04-02T06:12:28.293Z,86.31
2023-04-02T06:14:58.118Z,85.26
2023-04-02T06:17:43.335Z,85.78
2023-04-02T06:20:19.193Z,86.17
2023-04-02T06:23:00.132Z,84.66
2023-04-02T06:25:39.753Z,84.51
2023-04-02T06:28:27.062Z,85.17
2023-04-02T06:31:06.999Z,85.10
2023-04-02T06:33:37.848Z,85.64
2023-04-02T06:36:16.468Z,85.76
2023-04-02T06:38:48.576Z,86.59
2023-04-02T06:41:21.206Z,86.59
2023-04-02T06:43:58.399Z,85.57
2023-04-02T06:46:34.493Z,85.13
2023-04-02T06:49:12.671Z,84.53
2023-04-02T06:51:42.868Z,85.41
2023-04-02T06:54:23.320Z,85.39
2023-04-02T06:57:06.731Z,85.33
2023-04-02T06:59:41.890Z,84.40
2023-04-02T07:02:34.346Z,84.44
2023-04-02T07:05:08.444Z,85.02
2023-04-02T07:07:41.316Z,85.49
2023-04-02T07:10:19.294Z,85.33
2023-04-02T07:12:51.792Z,84.70
2023-04-02T07:15:22.616Z,83.90
2023-04-02T07:18:00.670Z,83.55
2023-04-02T07:20:35.896Z,83.07
2023-04-02T07:23:24.298Z,83.09
2023-04-02T07:25:56.053Z,83.29
2023-04-02T07:28:34.868Z,81.61
2023-04-02T07:31:11.227Z,81.83
2023-04-02T07:33:44.696Z,82.74
2023-04-02T07:36:28.679Z,82.76
2023-04-02T07:39:00.512Z,83.00
2023-04-02T07:41:37.126Z,83.23
2023-04-02T07:44:14.090Z,82.37
2023-04-02T07:46:45.317Z,82.65
2023-04-02T07:49:13.500Z,82.98
2023-04-02T07:51:45.238Z,83.01
2023-04-02T07:54:18.566Z,83.35
2023-04-02T07:57:05.376Z,83.66
2023-04-02T07:59:36.088Z,83.70
2023-04-02T08:02:03.629Z,83.47
2023-04-02T08:04:32.028Z,83.72
2023-04-02T08:06:59.903Z,82.44
2023-04-02T08:09:27.921Z,83.59
2023-04-02T08:11:58.417Z,82.03
2023-04-02T08:14:29.432Z,81.93
2023-04-02T08:16:58.613Z,81.96
2023-04-02T08:19:27.082Z,81.09
2023-04-02T08:21:54.814Z,80.88
2023-04-02T08:24:23.247Z,80.29
2023-04-02T08:26:51.386Z,80.59
2023-04-02T08:29:19.642Z,80.15
2023-04-02T08:31:47.240Z,80.23
2023-04-02T08:34:17.323Z,78.98
2023-04-02T08:36:44.884Z,78.62
2023-04-02T08:39:12.848Z,79.11
2023-04-02T08:41:47.357Z,79.07
2023-04-02T08:44:30.606Z,78.89
2023-04-02T08:47:03.285Z,79.33
2023-04-02T08:49:37.929Z,79.11
2023-04-02T08:52:05.404Z,79.39
2023-04-02T08:54:35.745Z,78.35
2023-04-02T08:57:07.830Z,78.89
2023-04-02T08:59:36.533Z,78.55
2023-04-02T09:02:26.476Z,78.80
2023-04-02T09:04:57.181Z,76.45
2023-04-02T09:07:25.941Z,76.23
2023-04-02T09:09:54.117Z,76.98
2023-04-02T09:12:26.617Z,75.26
2023-04-02T09:15:06.124Z,75.93
2023-04-02T09:17:42.814Z,73.98
2023-04-02T09:20:17.879Z,73.72
2023-04-02T09:22:47.359Z,74.80
2023-04-02T09:25:19.248Z,76.65
2023-04-02T09:27:48.856Z,75.33
2023-04-02T09:30:30.059Z,75.88
2023-04-02T09:32:58.852Z,75.68
2023-04-02T09:35:29.884Z,75.26
2023-04-02T09:38:19.451Z,73.97
2023-04-02T09:40:50.154Z,75.66
2023-04-02T09:43:19.138Z,74.65
2023-04-02T09:45:57.945Z,75.73
2023-04-02T09:48:28.605Z,75.80
2023-04-02T09:51:13.159Z,76.28
2023-04-02T09:53:42.716Z,75.52
2023-04-02T09:56:17.502Z,76.57
2023-04-02T09:59:01.411Z,74.86
2023-04-02T10:01:31.210Z,74.17
2023-04-02T10:03:59.253Z,73.64
2023-04-02T10:06:30.443Z,74.55
2023-04-02T10:08:58.017Z,75.14
2023-04-02T10:11:36.523Z,74.23
2023-04-02T10:14:19.168Z,75.14
2023-04-02T10:16:51.476Z,75.49
2023-04-02T10:19:26.431Z,75.35
2023-04-02T10:21:57.996Z,75.07
2023-04-02T10:24:28.741Z,76.07
2023-04-02T10:27:09.980Z,75.50
2023-04-02T10:30:11.437Z,76.18
2023-04-02T10:32:44.566Z,75.39
2023-04-02T10:35:19.833Z,75.49
2023-04-02T10:38:26.092Z,75.30
2023-04-02T10:41:00.644Z,75.60
2023-04-02T10:44:06.179Z,74.36
2023-04-02T10:46:48.721Z,74.45
2023-04-02T10:49:25.550Z,74.61
2023-04-02T10:52:00.054Z,74.96
2023-04-02T10:54:37.003Z,74.68
2023-04-02T10:57:12.709Z,75.38
2023-04-02T10:59:46.578Z,75.50
2023-04-02T11:02:30.709Z,74.47
2023-04-02T11:05:04.641Z,75.25
2023-04-02T11:07:38.966Z,73.92
2023-04-02T11:10:08.027Z,74.08
2023-04-02T11:12:43.597Z,73.31
2023-04-02T11:15:16.109Z,74.19
2023-04-02T11:17:44.090Z,73.70
2023-04-02T11:20:42.360Z,75.07
2023-04-02T11:23:13.486Z,73.43
2023-04-02T11:25:42.705Z,73.27
2023-04-02T11:28:26.137Z,74.10
2023-04-02T11:30:55.021Z,74.13
2023-04-02T11:33:44.733Z,73.26
2023-04-02T11:36:50.982Z,74.04
2023-04-02T11:39:41.731Z,73.70
2023-04-02T11:42:27.507Z,72.52
2023-04-02T11:44:59.778Z,73.44
2023-04-02T11:47:28.023Z,72.50
2023-04-02T11:50:04.578Z,73.82
2023-04-02T11:52:36.604Z,74.35
2023-04-02T11:55:24.394Z,73.42
2023-04-02T11:58:22.366Z,74.24
2023-04-02T12:01:25.749Z,74.93
2023-04-02T12:04:27.851Z,75.03
2023-04-02T12:07:11.176Z,73.65
2023-04-02T12:09:45.630Z,73.17
2023-04-02T12:12:18.869Z,71.83
2023-04-02T12:14:48.698Z,72.05
2023-04-02T12:17:24.223Z,71.71
2023-04-02T12:19:55.258Z,74.05
2023-04-02T12:22:24.916Z,73.62
2023-04-02T12:24:56.414Z,72.37
2023-04-02T12:27:28.897Z,72.93
2023-04-02T12:30:12.609Z,72.38
2023-04-02T12:32:42.067Z,72.43
2023-04-02T12:35:28.186Z,72.87
2023-04-02T12:37:55.874Z,71.27
2023-04-02T12:40:24.995Z,71.96
2023-04-02T12:42:52.973Z,71.92
2023-04-02T12:45:28.561Z,73.34
2023-04-02T12:48:04.157Z,73.17
2023-04-02T12:50:34.343Z,73.10
2023-04-02T12:53:02.267Z,73.37
2023-04-02T12:55:30.142Z,73.09
2023-04-02T12:57:58.961Z,73.21
2023-04-02T13:00:34.304Z,73.26
2023-04-02T13:03:16.613Z,72.34
2023-04-02T13:05:49.521Z,72.22
2023-04-02T13:08:22.806Z,72.32
2023-04-02T13:10:56.282Z,72.31
2023-04-02T13:13:28.870Z,72.47
2023-04-02T13:16:24.077Z,72.79
2023-04-02T13:19:08.901Z,72.67
2023-04-02T13:21:36.922Z,72.91
2023-04-02T13:24:04.708Z,72.92
2023-04-02T13:26:32.757Z,73.32
2023-04-02T13:29:01.916Z,73.54
2023-04-02T13:31:30.539Z,73.84
2023-04-02T13:33:59.795Z,72.23
2023-04-02T13:36:28.377Z,72.90
2023-04-02T13:38:55.947Z,72.90
2023-04-02T13:41:26.149Z,73.30
2023-04-02T13:43:55.238Z,73.28
2023-04-02T13:46:25.274Z,72.54
2023-04-02T13:48:53.824Z,72.64
2023-04-02T13:51:27.483Z,73.06
2023-04-02T13:53:57.864Z,73.68
2023-04-02T13:56:25.828Z,73.16
2023-04-02T13:58:53.478Z,72.61
2023-04-02T14:01:24.576Z,73.07
2023-04-02T14:03:53.419Z,72.79
2023-04-02T14:06:37.297Z,73.41
2023-04-02T14:09:13.187Z,72.38
2023-04-02T14:11:50.792Z,72.09
2023-04-02T14:14:31.509Z,72.44
2023-04-02T14:17:11.114Z,72.40
2023-04-02T14:19:58.161Z,72.69
2023-04-02T14:22:40.570Z,72.79
2023-04-02T14:25:18.258Z,73.33
2023-04-02T14:27:52.110Z,73.26
2023-04-02T14:30:27.731Z,72.80
2023-04-02T14:33:05.351Z,73.14
2023-04-02T14:35:37.310Z,72.98
2023-04-02T14:38:17.315Z,72.73
2023-04-02T14:40:47.408Z,72.92
2023-04-02T14:43:19.684Z,73.37
2023-04-02T14:45:56.979Z,73.21
2023-04-02T14:48:43.873Z,73.03
2023-04-02T14:51:17.432Z,73.63
2023-04-02T14:54:04.742Z,72.66
2023-04-02T14:56:39.289Z,73.21
2023-04-02T14:59:21.417Z,73.30
2023-04-02T15:01:52.455Z,73.02
2023-04-02T15:04:27.169Z,73.19
2023-04-02T15:06:59.641Z,73.80
2023-04-02T15:09:34.062Z,73.06
2023-04-02T15:12:07.349Z,73.04
2023-04-02T15:14:41.530Z,73.50
2023-04-02T15:17:11.036Z,73.23
2023-04-02T15:19:39.932Z,73.36
2023-04-02T15:22:23.048Z,73.03
2023-04-02T15:25:01.789Z,72.96
2023-04-02T15:27:51.886Z,72.97
2023-04-02T15:30:24.887Z,72.99
2023-04-02T15:32:54.468Z,73.07
2023-04-02T15:35:32.218Z,72.99
2023-04-02T15:38:05.047Z,72.54
2023-04-02T15:40:48.451Z,72.71
2023-04-02T15:43:22.134Z,72.44
2023-04-02T15:45:59.598Z,73.76
2023-04-02T15:48:41.201Z,72.96
2023-04-02T15:51:20.310Z,73.15
2023-04-02T15:54:02.344Z,72.49
2023-04-02T15:56:44.267Z,72.33
2023-04-02T15:59:39.666Z,72.75
2023-04-02T16:02:29.285Z,72.92
2023-04-02T16:05:02.232Z,73.35
2023-04-02T16:07:51.739Z,73.25
2023-04-02T16:10:38.063Z,73.01
2023-04-02T16:13:19.295Z,73.20
2023-04-02T16:15:52.463Z,71.99
2023-04-02T16:18:33.010Z,71.71
2023-04-02T16:21:02.684Z,71.76
2023-04-02T16:23:35.272Z,70.02
2023-04-02T16:26:11.055Z,71.41
2023-04-02T16:28:46.677Z,70.66
2023-04-02T16:31:21.213Z,71.50
2023-04-02T16:33:58.849Z,72.06
2023-04-02T16:36:35.136Z,71.71
2023-04-02T16:39:12.915Z,72.10
2023-04-02T16:41:52.581Z,71.48
2023-04-02T16:44:33.247Z,71.59
2023-04-02T16:47:14.890Z,71.73
2023-04-02T16:49:54.370Z,71.99
2023-04-02T16:52:36.639Z,71.45
2023-04-02T16:55:23.380Z,71.09
2023-04-02T16:58:01.035Z,71.87
2023-04-02T17:00:40.542Z,71.52
2023-04-02T17:03:31.675Z,71.86
2023-04-02T17:06:06.263Z,71.50
2023-04-02T17:08:42.349Z,71.63
2023-04-02T17:11:20.846Z,71.98
2023-04-02T17:13:57.378Z,71.34
2023-04-02T17:16:35.499Z,71.54
2023-04-02T17:19:09.791Z,71.30
2023-04-02T17:21:40.054Z,70.98
2023-04-02T17:24:19.965Z,71.01
2023-04-02T17:26:51.719Z,70.74
2023-04-02T17:29:24.466Z,70.46
2023-04-02T17:32:00.068Z,71.69
2023-04-02T17:34:29.378Z,70.81
2023-04-02T17:37:08.882Z,71.17
2023-04-02T17:39:45.369Z,71.08
2023-04-02T17:42:21.032Z,71.25
2023-04-02T17:45:01.185Z,70.11
2023-04-02T17:47:40.953Z,70.50
2023-04-02T17:50:38.671Z,69.65
2023-04-02T17:53:19.523Z,70.19
2023-04-02T17:55:58.059Z,69.54
2023-04-02T17:58:43.621Z,69.82
2023-04-02T18:01:18.083Z,69.96
2023-04-02T18:03:53.813Z,70.45
2023-04-02T18:06:25.504Z,70.30
2023-04-02T18:09:18.744Z,70.23
2023-04-02T18:11:59.840Z,70.53
2023-04-02T18:14:43.646Z,70.25
2023-04-02T18:17:21.114Z,69.97
2023-04-02T18:19:58.022Z,70.30
2023-04-02T18:22:36.263Z,70.30
2023-04-02T18:25:26.502Z,70.22
2023-04-02T18:28:10.303Z,70.53
2023-04-02T18:30:46.051Z,70.40
2023-04-02T18:33:29.324Z,70.50
2023-04-02T18:36:06.720Z,70.39
2023-04-02T18:38:42.852Z,70.45
2023-04-02T18:41:37.026Z,70.12
2023-04-02T18:44:20.450Z,70.86
2023-04-02T18:46:52.121Z,71.18
2023-04-02T18:49:28.650Z,70.96
2023-04-02T18:52:01.540Z,71.50
2023-04-02T18:54:31.973Z,70.99
2023-04-02T18:57:02.306Z,71.04
2023-04-02T18:59:38.182Z,70.94
2023-04-02T19:02:26.065Z,71.31
2023-04-02T19:05:01.346Z,71.39
2023-04-02T19:07:37.074Z,71.26
2023-04-02T19:10:13.974Z,71.43
2023-04-02T19:12:42.050Z,71.52
2023-04-02T19:15:16.013Z,71.63
2023-04-02T19:17:46.966Z,71.44
2023-04-02T19:20:24.960Z,71.13
2023-04-02T19:23:02.764Z,71.56
2023-04-02T19:25:42.772Z,71.94
2023-04-02T19:28:20.834Z,71.81
2023-04-02T19:30:56.500Z,70.53
2023-04-02T19:33:36.781Z,70.48
2023-04-02T19:36:16.381Z,70.06
2023-04-02T19:38:55.205Z,69.43
2023-04-02T19:41:29.845Z,69.61
2023-04-02T19:43:57.849Z,69.41
2023-04-02T19:46:26.631Z,68.87
2023-04-02T19:49:04.507Z,67.92
2023-04-02T19:51:32.077Z,68.72
2023-04-02T19:54:01.458Z,67.88
2023-04-02T19:56:29.039Z,67.05
2023-04-02T19:58:58.284Z,65.86
2023-04-02T20:01:28.027Z,67.04
2023-04-02T20:03:56.305Z,66.65
2023-04-02T20:06:23.811Z,66.12
2023-04-02T20:08:51.973Z,66.67
2023-04-02T20:11:21.205Z,66.55
2023-04-02T20:13:49.198Z,66.55
2023-04-02T20:16:17.099Z,66.74
2023-04-02T20:18:47.972Z,65.86
2023-04-02T20:21:27.449Z,65.46
2023-04-02T20:23:55.679Z,65.61
2023-04-02T20:26:24.668Z,65.35
2023-04-02T20:28:52.887Z,63.75
2023-04-02T20:31:20.404Z,63.68
2023-04-02T20:33:48.509Z,63.44
2023-04-02T20:36:17.579Z,63.51
2023-04-02T20:38:45.907Z,63.56
2023-04-02T20:41:13.614Z,64.13
2023-04-02T20:43:43.169Z,64.22
2023-04-02T20:46:12.363Z,64.12
2023-04-02T20:48:40.935Z,64.00
2023-04-02T20:51:11.328Z,62.12
2023-04-02T20:53:39.346Z,61.72
2023-04-02T20:56:09.011Z,62.61
2023-04-02T20:58:38.329Z,61.23
2023-04-02T21:01:19.327Z,61.68
2023-04-02T21:03:48.050Z,62.63
2023-04-02T21:06:18.836Z,62.34
2023-04-02T21:08:47.908Z,62.21
2023-04-02T21:11:16.290Z,62.64
2023-04-02T21:13:45.135Z,63.51
2023-04-02T21:16:16.709Z,62.89
2023-04-02T21:18:45.631Z,62.82
2023-04-02T21:21:14.548Z,63.95
2023-04-02T21:23:43.994Z,63.25
2023-04-02T21:26:14.151Z,64.11
2023-04-02T21:28:43.484Z,63.28
2023-04-02T21:31:16.908Z,62.98
2023-04-02T21:33:47.124Z,63.67
2023-04-02T21:36:16.829Z,66.04
2023-04-02T21:38:46.651Z,65.39
2023-04-02T21:41:15.767Z,63.92
2023-04-02T21:43:44.504Z,64.55
2023-04-02T21:46:12.563Z,64.29
2023-04-02T21:48:42.088Z,63.21
2023-04-02T21:51:11.733Z,64.48
2023-04-02T21:53:40.385Z,65.59
2023-04-02T21:56:11.289Z,65.06
2023-04-02T21:58:39.512Z,64.02
2023-04-02T22:01:11.347Z,64.77
2023-04-02T22:03:47.361Z,65.63
2023-04-02T22:06:16.762Z,65.11
2023-04-02T22:08:45.194Z,64.38
2023-04-02T22:11:15.242Z,64.36
2023-04-02T22:13:45.767Z,64.96
2023-04-02T22:16:15.295Z,65.08
2023-04-02T22:18:44.483Z,64.30
2023-04-02T22:21:16.189Z,64.32
2023-04-02T22:23:44.862Z,63.91
2023-04-02T22:26:13.784Z,64.52
2023-04-02T22:28:41.966Z,64.78
2023-04-02T22:31:13.027Z,65.35
2023-04-02T22:33:41.452Z,65.18
2023-04-02T22:36:09.300Z,64.73
2023-04-02T22:38:39.218Z,65.28
2023-04-02T22:41:08.781Z,65.20
2023-04-02T22:43:37.689Z,64.30
2023-04-02T22:46:07.149Z,64.81
2023-04-02T22:48:35.930Z,65.29
2023-04-02T22:51:03.775Z,64.73
2023-04-02T22:53:31.785Z,64.78
2023-04-02T22:56:03.599Z,65.27
2023-04-02T22:58:31.661Z,65.47
2023-04-02T23:01:03.861Z,64.65
2023-04-02T23:03:31.936Z,65.40
2023-04-02T23:06:00.422Z,64.54
2023-04-02T23:08:28.830Z,64.49
2023-04-02T23:11:01.663Z,64.92
2023-04-02T23:13:31.299Z,65.67
2023-04-02T23:16:00.821Z,66.70
2023-04-02T23:18:29.237Z,66.51
2023-04-02T23:20:56.633Z,65.97
2023-04-02T23:23:25.801Z,65.88
2023-04-02T23:26:03.543Z,66.34
2023-04-02T23:28:34.229Z,66.20
2023-04-02T23:31:02.812Z,66.06
2023-04-02T23:33:30.977Z,65.42
2023-04-02T23:35:59.063Z,66.60
2023-04-02T23:38:27.547Z,67.84
2023-04-02T23:40:54.941Z,67.93
2023-04-02T23:43:23.263Z,68.03
2023-04-02T23:45:52.429Z,67.66
2023-04-02T23:48:20.543Z,67.77
2023-04-02T23:50:48.300Z,67.55
2023-04-02T23:53:16.519Z,67.24
2023-04-02T23:55:44.125Z,67.55
2023-04-02T23:58:12.094Z,67.78
